Time;durP1;ratioP1;P1;durP2;ratioP2;P2;SDS_P1;SDS_P2;PMS_P1;PMS_P2;Temp;Humidity;BMP_temperature;BMP_pressure;BME280_temperature;BME280_humidity;BME280_pressure;Samples;Min_cycle;Max_cycle;Signal;HPM_P1;HPM_P2
2021/06/29 00:01:42;;;;;;;17.02;6.82;;;15.50;99.90;;;;;;5075682;28;20185;-71
2021/06/29 00:04:08;;;;;;;15.73;7.25;;;15.50;99.90;;;;;;5073732;28;20633;-68
2021/06/29 00:06:35;;;;;;;17.42;6.85;;;15.50;99.90;;;;;;5048330;28;20229;-71
2021/06/29 00:09:01;;;;;;;23.60;7.43;;;15.50;99.90;;;;;;5075364;28;20166;-71
2021/06/29 00:11:27;;;;;;;17.77;7.00;;;15.50;99.90;;;;;;5075010;28;20177;-72
2021/06/29 00:13:53;;;;;;;13.00;6.55;;;15.50;99.90;;;;;;5074291;28;20204;-70
2021/06/29 00:16:19;;;;;;;21.50;7.80;;;15.50;99.90;;;;;;5075020;28;20185;-72
2021/06/29 00:18:45;;;;;;;16.35;5.95;;;15.50;99.90;;;;;;5075385;28;20178;-72
2021/06/29 00:21:11;;;;;;;14.45;6.72;;;15.50;99.90;;;;;;5074382;28;20533;-71
2021/06/29 00:23:38;;;;;;;19.60;7.93;;;15.50;99.90;;;;;;5056451;28;20186;-72
2021/06/29 00:26:06;;;;;;;14.23;6.53;;;15.50;99.90;;;;;;5075093;28;20216;-71
2021/06/29 00:28:32;;;;;;;16.02;7.07;;;15.50;99.90;;;;;;5057300;28;20178;-71
2021/06/29 00:30:58;;;;;;;17.00;7.28;;;15.50;99.90;;;;;;5074846;28;20185;-72
2021/06/29 00:33:24;;;;;;;11.85;6.43;;;15.50;99.90;;;;;;5074558;28;20526;-72
2021/06/29 00:35:50;;;;;;;17.15;6.97;;;15.50;99.90;;;;;;5074311;28;20174;-72
2021/06/29 00:38:16;;;;;;;18.58;6.50;;;15.50;99.90;;;;;;5073229;28;20577;-71
2021/06/29 00:40:42;;;;;;;11.38;6.68;;;15.50;99.90;;;;;;5075032;28;20170;-71
2021/06/29 00:43:08;;;;;;;12.15;6.93;;;15.60;99.90;;;;;;5074494;28;20189;-72
2021/06/29 00:45:34;;;;;;;17.58;7.50;;;15.60;99.90;;;;;;5072844;28;20194;-72
2021/06/29 00:48:00;;;;;;;18.73;9.25;;;15.50;99.90;;;;;;5073947;28;20634;-71
2021/06/29 00:50:26;;;;;;;17.67;7.15;;;15.60;99.90;;;;;;5074479;28;20174;-71
2021/06/29 00:52:53;;;;;;;17.33;8.30;;;15.60;99.90;;;;;;5074758;28;20181;-71
2021/06/29 00:55:19;;;;;;;17.70;7.93;;;15.60;99.90;;;;;;5074109;28;20252;-72
2021/06/29 00:57:48;;;;;;;15.77;7.50;;;15.60;99.90;;;;;;5073588;28;20178;-71
2021/06/29 01:00:15;;;;;;;21.23;7.43;;;15.60;99.90;;;;;;5056352;28;20190;-71
2021/06/29 01:02:41;;;;;;;12.70;7.35;;;15.60;99.90;;;;;;5074323;28;20196;-71
2021/06/29 01:05:07;;;;;;;20.02;8.25;;;15.60;99.90;;;;;;5074636;28;20174;-72
2021/06/29 01:07:33;;;;;;;16.17;7.78;;;15.50;99.90;;;;;;5073437;28;20210;-72
2021/06/29 01:10:03;;;;;;;20.73;8.15;;;15.50;99.90;;;;;;5055544;28;20182;-72
2021/06/29 01:12:29;;;;;;;11.02;7.05;;;15.50;99.90;;;;;;5072861;28;20186;-71
2021/06/29 01:14:55;;;;;;;16.17;7.20;;;15.40;99.90;;;;;;5073785;28;20221;-71
2021/06/29 01:17:22;;;;;;;14.35;7.57;;;15.40;99.90;;;;;;5073957;28;20174;-71
2021/06/29 01:19:50;;;;;;;15.95;7.32;;;15.40;99.90;;;;;;5074011;28;20661;-71
2021/06/29 01:22:17;;;;;;;16.92;7.10;;;15.30;99.90;;;;;;5073370;28;20268;-71
2021/06/29 01:24:48;;;;;;;20.08;7.30;;;15.30;99.90;;;;;;5072563;28;20170;-72
2021/06/29 01:32:23;;;;;;;14.98;6.65;;;15.00;99.90;;;;;;5080765;28;20161;-72
2021/06/29 01:34:49;;;;;;;12.13;6.75;;;14.90;99.90;;;;;;5071905;28;20174;-70
2021/06/29 01:37:17;;;;;;;18.33;6.68;;;14.80;99.90;;;;;;5074062;28;20166;-72
2021/06/29 01:40:14;;;;;;;21.23;8.52;;;14.80;99.90;;;;;;5073386;28;20221;-71
2021/06/29 01:42:40;;;;;;;20.50;7.53;;;14.70;99.90;;;;;;5072672;28;20182;-69
2021/06/29 01:45:06;;;;;;;14.05;7.38;;;14.60;99.90;;;;;;5073225;28;20645;-72
2021/06/29 01:50:14;;;;;;;14.85;7.63;;;14.50;99.90;;;;;;5079762;28;20173;-72
2021/06/29 01:52:40;;;;;;;14.50;7.22;;;14.50;99.90;;;;;;5048572;28;20174;-72
2021/06/29 01:55:07;;;;;;;17.30;7.18;;;14.40;99.90;;;;;;5072083;28;20511;-72
2021/06/29 01:57:34;;;;;;;17.92;7.57;;;14.40;99.90;;;;;;5071894;28;20554;-71
2021/06/29 02:00:00;;;;;;;16.67;7.55;;;14.30;99.90;;;;;;5072231;28;20182;-71
2021/06/29 02:02:26;;;;;;;20.65;7.45;;;14.20;99.90;;;;;;5072749;28;20661;-70
2021/06/29 02:04:52;;;;;;;16.40;7.68;;;14.20;99.90;;;;;;5072541;28;20182;-71
2021/06/29 02:07:18;;;;;;;19.63;7.45;;;14.20;99.90;;;;;;5072579;28;20202;-71
2021/06/29 02:09:44;;;;;;;13.00;6.97;;;14.10;99.90;;;;;;5071828;28;20201;-71
2021/06/29 02:12:11;;;;;;;22.75;10.13;;;14.10;99.90;;;;;;5073199;28;20627;-71
2021/06/29 02:14:37;;;;;;;16.83;7.15;;;14.10;99.90;;;;;;5072781;28;20673;-71
2021/06/29 02:17:04;;;;;;;13.25;7.60;;;14.10;99.90;;;;;;5072763;28;20907;-72
2021/06/29 02:19:30;;;;;;;20.25;9.68;;;14.00;99.90;;;;;;5070950;28;20174;-70
2021/06/29 02:21:56;;;;;;;18.88;9.50;;;14.10;99.90;;;;;;5072798;28;20185;-71
2021/06/29 02:24:22;;;;;;;16.63;9.13;;;14.00;99.90;;;;;;5071381;28;20193;-71
2021/06/29 02:26:48;;;;;;;16.17;6.88;;;13.90;99.90;;;;;;5069628;28;20201;-69
2021/06/29 02:29:14;;;;;;;19.98;6.80;;;13.90;99.90;;;;;;5072779;28;20193;-70
2021/06/29 02:31:40;;;;;;;15.68;7.18;;;13.90;99.90;;;;;;5073067;28;20178;-70
2021/06/29 02:34:06;;;;;;;14.20;6.63;;;13.80;99.90;;;;;;5073014;28;20169;-71
2021/06/29 02:36:32;;;;;;;16.08;6.65;;;13.80;99.90;;;;;;5071792;28;20204;-70
2021/06/29 02:38:59;;;;;;;16.67;6.18;;;13.80;99.90;;;;;;5072174;28;21881;-71
2021/06/29 02:41:25;;;;;;;16.77;6.63;;;13.80;99.90;;;;;;5066394;28;20256;-71
2021/06/29 02:43:51;;;;;;;19.67;6.90;;;13.80;99.90;;;;;;5071942;28;20170;-71
2021/06/29 02:46:17;;;;;;;13.82;6.55;;;13.80;99.90;;;;;;5072669;28;20209;-71
2021/06/29 02:48:43;;;;;;;12.93;6.97;;;13.70;99.90;;;;;;5071900;28;20534;-71
2021/06/29 02:51:09;;;;;;;17.15;6.63;;;13.70;99.90;;;;;;5072911;28;20174;-72
2021/06/29 02:53:35;;;;;;;15.02;6.57;;;13.70;99.90;;;;;;5072702;28;20662;-69
2021/06/29 02:56:01;;;;;;;15.68;7.10;;;13.60;99.90;;;;;;5065005;28;20182;-72
2021/06/29 02:58:27;;;;;;;19.70;6.95;;;13.60;99.90;;;;;;5054754;28;20190;-71
2021/06/29 03:00:53;;;;;;;19.00;9.60;;;13.60;99.90;;;;;;5072124;28;20178;-71
2021/06/29 03:03:20;;;;;;;19.52;9.65;;;13.60;99.90;;;;;;5072123;28;20174;-69
2021/06/29 03:05:46;;;;;;;20.02;10.48;;;13.50;99.90;;;;;;5072104;28;20188;-71
2021/06/29 03:08:12;;;;;;;15.45;6.82;;;13.50;99.90;;;;;;5071397;28;20188;-71
2021/06/29 03:10:38;;;;;;;19.50;7.22;;;13.50;99.90;;;;;;5070268;28;20178;-69
2021/06/29 03:13:04;;;;;;;18.08;6.75;;;13.50;99.90;;;;;;5071607;28;20268;-71
2021/06/29 03:15:30;;;;;;;21.25;10.90;;;13.50;99.90;;;;;;5071546;28;20201;-71
2021/06/29 03:17:56;;;;;;;19.00;9.93;;;13.60;99.90;;;;;;5072451;28;20548;-71
2021/06/29 03:20:22;;;;;;;21.02;10.40;;;13.60;99.90;;;;;;5072990;28;20185;-72
2021/06/29 03:22:48;;;;;;;27.02;9.88;;;13.70;99.90;;;;;;5075593;28;20546;-72
2021/06/29 03:25:14;;;;;;;18.15;9.77;;;13.70;99.90;;;;;;5076097;28;20174;-71
2021/06/29 03:27:41;;;;;;;24.02;10.20;;;13.80;99.90;;;;;;5075919;28;20224;-72
2021/06/29 03:30:08;;;;;;;17.40;7.20;;;13.80;99.90;;;;;;5075761;28;20174;-72
2021/06/29 03:32:34;;;;;;;15.50;7.40;;;13.90;99.90;;;;;;5074876;28;20650;-72
2021/06/29 03:35:02;;;;;;;18.13;7.72;;;13.90;99.90;;;;;;5070889;28;20209;-67
2021/06/29 03:37:28;;;;;;;13.82;7.50;;;13.90;99.90;;;;;;5073237;28;20541;-71
2021/06/29 03:39:55;;;;;;;13.75;6.93;;;13.90;99.90;;;;;;5076035;28;20213;-71
2021/06/29 03:42:21;;;;;;;23.83;10.30;;;13.90;99.90;;;;;;5076142;28;20245;-71
2021/06/29 03:44:47;;;;;;;20.38;7.82;;;13.90;99.90;;;;;;5073507;28;20182;-71
2021/06/29 03:47:14;;;;;;;13.65;7.70;;;13.90;99.90;;;;;;5072180;28;20214;-74
2021/06/29 03:49:40;;;;;;;18.85;8.13;;;13.80;99.90;;;;;;5076032;28;20189;-75
2021/06/29 03:52:06;;;;;;;14.65;8.30;;;13.90;99.90;;;;;;5074746;28;20186;-73
2021/06/29 03:54:32;;;;;;;13.23;7.60;;;13.90;99.90;;;;;;5075983;28;20170;-75
2021/06/29 03:56:59;;;;;;;25.48;9.75;;;13.90;99.90;;;;;;5076108;28;20170;-75
2021/06/29 03:59:25;;;;;;;21.40;8.48;;;13.80;99.90;;;;;;5074438;28;20286;-73
2021/06/29 04:02:27;;;;;;;18.45;7.63;;;13.90;99.90;;;;;;5075165;28;20643;-74
2021/06/29 04:05:11;;;;;;;14.45;8.10;;;13.90;99.90;;;;;;5023484;28;20212;-74
2021/06/29 04:07:37;;;;;;;24.52;11.70;;;14.00;99.90;;;;;;5034102;28;20738;-74
2021/06/29 04:10:04;;;;;;;16.77;8.05;;;14.10;99.90;;;;;;5034326;28;20644;-74
2021/06/29 04:12:30;;;;;;;19.55;8.50;;;14.10;99.90;;;;;;5032475;28;20198;-73
2021/06/29 04:14:57;;;;;;;18.67;8.23;;;14.20;99.90;;;;;;5022444;28;20685;-73
2021/06/29 04:17:23;;;;;;;19.45;8.07;;;14.20;99.90;;;;;;5014290;28;20180;-73
2021/06/29 04:19:49;;;;;;;21.50;8.38;;;14.30;99.90;;;;;;5019356;28;20187;-74
2021/06/29 04:22:15;;;;;;;17.45;7.68;;;14.30;99.90;;;;;;5009469;28;20195;-75
2021/06/29 04:24:41;;;;;;;17.85;8.32;;;14.40;99.90;;;;;;5031647;28;20203;-74
2021/06/29 04:27:07;;;;;;;20.00;8.50;;;14.50;99.90;;;;;;5027249;28;20306;-73
2021/06/29 04:29:33;;;;;;;22.35;8.55;;;14.50;99.90;;;;;;5013954;28;21890;-75
2021/06/29 04:31:59;;;;;;;14.65;8.30;;;14.60;99.90;;;;;;5000798;28;20194;-75
2021/06/29 04:34:26;;;;;;;17.80;7.70;;;14.60;99.90;;;;;;5018211;28;20184;-71
2021/06/29 04:36:52;;;;;;;19.02;8.20;;;14.70;99.90;;;;;;5061737;28;20200;-73
2021/06/29 04:39:18;;;;;;;17.75;7.93;;;14.80;99.90;;;;;;5074548;28;20581;-74
2021/06/29 04:41:44;;;;;;;19.42;7.60;;;14.90;99.90;;;;;;5073250;28;20204;-74
2021/06/29 04:44:29;;;;;;;15.07;7.22;;;15.00;99.90;;;;;;5072361;28;20200;-74
2021/06/29 04:46:56;;;;;;;16.10;7.45;;;15.10;99.90;;;;;;5073782;28;20210;-73
2021/06/29 04:49:26;;;;;;;18.73;7.60;;;15.30;99.90;;;;;;5074689;28;20170;-73
2021/06/29 04:51:52;;;;;;;13.75;8.07;;;15.30;99.90;;;;;;5074260;28;20182;-74
2021/06/29 04:54:18;;;;;;;16.02;7.18;;;15.40;99.90;;;;;;5074506;28;20177;-73
2021/06/29 04:56:45;;;;;;;17.90;7.88;;;15.50;99.90;;;;;;5072796;28;20185;-74
2021/06/29 04:59:11;;;;;;;14.38;7.57;;;15.50;99.90;;;;;;5074362;28;20178;-73
2021/06/29 05:01:37;;;;;;;18.33;6.60;;;15.60;99.90;;;;;;5074501;28;20181;-72
2021/06/29 05:04:03;;;;;;;17.63;6.80;;;15.60;99.90;;;;;;5071150;28;20185;-73
2021/06/29 05:06:29;;;;;;;11.07;5.85;;;15.70;99.90;;;;;;5067851;28;20221;-73
2021/06/29 05:08:55;;;;;;;13.82;5.78;;;15.70;99.90;;;;;;5067555;28;20178;-72
2021/06/29 05:11:21;;;;;;;27.13;5.68;;;15.70;99.90;;;;;;5074464;28;20568;-73
2021/06/29 05:13:47;;;;;;;13.80;5.40;;;15.60;99.90;;;;;;5056167;28;20177;-74
2021/06/29 05:16:14;;;;;;;10.73;5.07;;;15.50;99.90;;;;;;5074072;28;20542;-73
2021/06/29 05:18:40;;;;;;;10.18;5.18;;;15.40;99.90;;;;;;5072664;28;20182;-73
2021/06/29 05:21:06;;;;;;;12.00;5.70;;;15.40;99.90;;;;;;5073653;28;20669;-72
2021/06/29 05:23:32;;;;;;;11.30;5.07;;;15.50;99.90;;;;;;5073809;28;20174;-72
2021/06/29 05:25:58;;;;;;;9.00;4.70;;;15.60;99.90;;;;;;5072352;28;20177;-72
2021/06/29 05:28:24;;;;;;;10.00;5.15;;;15.70;99.90;;;;;;5073258;28;20217;-74
2021/06/29 05:30:50;;;;;;;25.25;5.95;;;15.90;99.90;;;;;;5073556;28;20626;-72
2021/06/29 05:33:17;;;;;;;13.20;5.07;;;16.00;99.90;;;;;;5055828;28;20174;-72
2021/06/29 05:35:43;;;;;;;13.20;6.03;;;16.10;99.90;;;;;;5074158;28;20174;-73
2021/06/29 05:38:09;;;;;;;14.48;5.80;;;16.00;99.90;;;;;;5038467;28;20213;-73
2021/06/29 05:40:35;;;;;;;11.95;5.43;;;15.90;99.90;;;;;;5072951;28;20177;-74
2021/06/29 05:43:02;;;;;;;14.50;7.00;;;15.90;99.90;;;;;;5071796;28;20190;-72
2021/06/29 05:45:28;;;;;;;10.05;5.60;;;15.90;99.90;;;;;;5073333;28;20173;-72
2021/06/29 05:47:55;;;;;;;14.10;5.65;;;15.90;99.90;;;;;;5054977;28;20210;-69
2021/06/29 05:50:22;;;;;;;13.95;6.00;;;15.80;99.90;;;;;;5073579;28;20174;-72
2021/06/29 05:52:48;;;;;;;15.15;6.38;;;15.80;99.90;;;;;;5071252;28;20185;-73
2021/06/29 05:55:14;;;;;;;15.73;6.70;;;15.80;99.90;;;;;;5072745;28;20189;-70
2021/06/29 05:57:40;;;;;;;14.27;7.05;;;15.90;99.90;;;;;;5053790;28;20179;-73
2021/06/29 06:00:11;;;;;;;14.38;6.47;;;16.00;99.90;;;;;;5041827;28;20196;-71
2021/06/29 06:02:38;;;;;;;15.60;6.38;;;16.10;99.90;;;;;;5073293;28;20194;-71
2021/06/29 06:05:06;;;;;;;17.75;7.00;;;16.20;99.90;;;;;;5073118;28;20200;-73
2021/06/29 06:07:32;;;;;;;14.13;6.88;;;16.20;99.90;;;;;;5073578;28;20688;-73
2021/06/29 06:09:58;;;;;;;14.43;5.35;;;16.20;99.90;;;;;;5071189;28;20178;-70
2021/06/29 06:12:25;;;;;;;11.55;5.95;;;16.20;99.90;;;;;;5072914;28;20649;-74
2021/06/29 06:14:51;;;;;;;14.68;7.05;;;16.10;99.90;;;;;;5072342;28;20744;-75
2021/06/29 06:17:17;;;;;;;13.35;6.78;;;16.00;99.90;;;;;;5073020;28;20189;-73
2021/06/29 06:19:43;;;;;;;10.73;6.38;;;16.00;99.90;;;;;;5072940;28;20189;-72
2021/06/29 06:22:10;;;;;;;13.98;6.28;;;16.10;99.90;;;;;;5072434;28;20186;-73
2021/06/29 06:24:36;;;;;;;14.25;6.60;;;16.20;99.90;;;;;;5071553;28;20170;-73
2021/06/29 06:27:03;;;;;;;16.90;7.28;;;16.40;99.90;;;;;;5072448;28;20206;-73
2021/06/29 06:29:29;;;;;;;20.00;7.45;;;16.50;99.90;;;;;;5062459;28;20197;-71
2021/06/29 06:31:55;;;;;;;15.23;7.60;;;16.70;99.90;;;;;;5072228;28;20193;-73
2021/06/29 06:34:21;;;;;;;8.23;5.97;;;16.70;99.90;;;;;;5072472;28;20244;-73
2021/06/29 06:36:47;;;;;;;12.48;6.50;;;16.60;99.90;;;;;;5072560;28;20177;-73
2021/06/29 06:39:14;;;;;;;9.55;6.60;;;16.60;99.90;;;;;;5071558;28;20225;-72
2021/06/29 06:41:40;;;;;;;12.45;6.68;;;16.70;99.90;;;;;;5047305;28;20205;-72
2021/06/29 06:44:06;;;;;;;15.48;6.20;;;16.70;99.90;;;;;;5062964;28;20646;-71
2021/06/29 06:46:32;;;;;;;16.35;6.47;;;16.70;99.90;;;;;;5065871;28;20186;-71
2021/06/29 06:48:58;;;;;;;12.52;6.65;;;16.90;99.90;;;;;;5052561;28;20175;-70
2021/06/29 06:51:24;;;;;;;12.98;6.07;;;16.90;99.90;;;;;;5070378;28;20181;-71
2021/06/29 06:53:50;;;;;;;9.77;6.50;;;16.90;99.90;;;;;;5071617;28;20182;-71
2021/06/29 06:56:17;;;;;;;9.13;5.55;;;17.00;99.90;;;;;;5071660;28;20189;-74
2021/06/29 06:58:44;;;;;;;14.35;5.63;;;17.20;99.90;;;;;;5070596;28;20174;-72
2021/06/29 07:01:10;;;;;;;13.57;5.40;;;17.30;99.90;;;;;;5070734;28;20178;-71
2021/06/29 07:03:39;;;;;;;14.02;5.43;;;17.30;99.90;;;;;;5071287;28;20170;-73
2021/06/29 07:06:05;;;;;;;12.75;6.07;;;17.30;99.90;;;;;;5070697;28;20192;-73
2021/06/29 07:08:32;;;;;;;13.35;6.10;;;17.40;99.90;;;;;;5054849;28;20584;-73
2021/06/29 07:10:59;;;;;;;13.18;6.32;;;17.50;99.90;;;;;;5060490;28;20187;-72
2021/06/29 07:13:25;;;;;;;10.35;5.80;;;17.60;99.90;;;;;;5052133;28;20182;-74
2021/06/29 07:15:51;;;;;;;10.45;5.07;;;17.80;99.90;;;;;;5052238;28;20171;-73
2021/06/29 07:18:17;;;;;;;12.63;6.35;;;17.80;99.90;;;;;;5052600;28;20649;-71
2021/06/29 07:20:44;;;;;;;14.73;5.38;;;17.80;99.90;;;;;;5068280;28;20619;-68
2021/06/29 07:23:13;;;;;;;13.43;5.78;;;18.00;99.90;;;;;;5070870;28;20182;-70
2021/06/29 07:25:40;;;;;;;12.20;4.80;;;18.10;99.90;;;;;;5071606;28;20178;-68
2021/06/29 07:28:07;;;;;;;20.48;5.80;;;18.00;99.90;;;;;;5070837;28;20214;-67
2021/06/29 07:30:33;;;;;;;13.30;5.28;;;18.10;99.90;;;;;;5037579;28;20181;-68
2021/06/29 07:32:59;;;;;;;10.80;5.13;;;18.30;99.90;;;;;;5072338;28;20178;-63
2021/06/29 07:35:27;;;;;;;12.05;6.15;;;18.40;99.90;;;;;;5065137;28;20619;-62
2021/06/29 07:37:54;;;;;;;10.02;5.60;;;18.10;99.90;;;;;;5071162;28;20182;-66
2021/06/29 07:40:20;;;;;;;10.45;5.28;;;18.20;99.90;;;;;;5071395;28;20178;-77
2021/06/29 07:42:46;;;;;;;8.95;4.40;;;18.20;99.90;;;;;;5070552;28;20635;-72
2021/06/29 07:45:12;;;;;;;9.55;4.97;;;18.30;99.60;;;;;;5045333;28;20182;-78
2021/06/29 07:47:39;;;;;;;9.35;5.10;;;18.30;99.90;;;;;;5071577;28;20209;-77
2021/06/29 07:50:06;;;;;;;10.90;5.45;;;18.30;99.90;;;;;;5071393;28;20174;-80
2021/06/29 07:52:33;;;;;;;13.30;6.25;;;18.30;99.90;;;;;;5070427;28;20182;-78
2021/06/29 07:54:59;;;;;;;20.20;5.70;;;18.60;99.90;;;;;;5071682;28;20181;-78
2021/06/29 07:57:25;;;;;;;14.40;5.47;;;18.70;99.90;;;;;;5071859;28;20631;-77
2021/06/29 07:59:51;;;;;;;10.27;5.43;;;18.70;99.90;;;;;;5070957;28;20182;-78
2021/06/29 08:02:17;;;;;;;18.13;5.20;;;18.90;99.90;;;;;;5071482;28;20178;-78
2021/06/29 08:04:44;;;;;;;16.70;5.80;;;19.00;99.10;;;;;;5071363;28;20518;-77
2021/06/29 08:07:10;;;;;;;12.30;5.07;;;18.80;99.90;;;;;;5072066;28;20206;-77
2021/06/29 08:09:37;;;;;;;11.70;5.57;;;18.60;98.80;;;;;;5057789;28;20170;-79
2021/06/29 08:12:03;;;;;;;13.40;6.57;;;18.80;99.90;;;;;;5071002;28;20177;-78
2021/06/29 08:14:29;;;;;;;14.98;5.95;;;18.90;99.90;;;;;;5074752;28;20194;-77
2021/06/29 08:16:55;;;;;;;12.73;6.10;;;18.90;99.90;;;;;;5057051;28;20178;-79
2021/06/29 08:19:21;;;;;;;11.57;5.43;;;19.10;99.90;;;;;;5075208;28;20182;-78
2021/06/29 08:21:48;;;;;;;10.18;5.50;;;19.20;99.60;;;;;;5074336;28;20170;-78
2021/06/29 08:24:14;;;;;;;14.55;6.07;;;19.40;98.40;;;;;;5074711;28;20182;-78
2021/06/29 08:26:40;;;;;;;14.63;5.32;;;19.60;97.70;;;;;;5074953;28;20170;-79
2021/06/29 08:29:06;;;;;;;15.45;6.20;;;19.10;98.10;;;;;;5040403;28;20214;-79
2021/06/29 08:31:32;;;;;;;20.58;6.68;;;19.00;99.40;;;;;;5075131;28;20177;-74
2021/06/29 08:33:58;;;;;;;25.30;6.68;;;19.10;98.50;;;;;;5074657;28;20186;-77
2021/06/29 08:36:24;;;;;;;;;;;19.30;99.00;;;;;;5075513;28;20024;-78
2021/06/29 08:38:50;;;;;;;;;;;19.70;97.80;;;;;;5075227;28;20373;-79
2021/06/29 08:41:16;;;;;;;;;;;20.10;97.90;;;;;;5074804;28;19916;-76
2021/06/29 08:43:42;;;;;;;;;;;20.60;96.10;;;;;;5057923;28;19904;-75
2021/06/29 08:46:08;;;;;;;;;;;21.10;92.20;;;;;;5075479;28;19908;-77
2021/06/29 08:48:34;;;;;;;;;;;21.70;92.30;;;;;;5074042;28;19916;-79
2021/06/29 08:51:00;;;;;;;;;;;22.10;90.80;;;;;;5073896;28;19909;-76
2021/06/29 08:53:26;;;;;;;;;;;22.20;90.40;;;;;;5056688;28;19912;-79
2021/06/29 08:55:52;;;;;;;;;;;22.10;86.80;;;;;;5075492;28;19912;-77
2021/06/29 08:58:18;;;;;;;;;;;22.20;87.40;;;;;;5077125;28;19924;-76
2021/06/29 09:00:45;;;;;;;;;;;22.40;87.60;;;;;;5076160;28;19908;-73
2021/06/29 09:03:10;;;;;;;;;;;21.60;85.70;;;;;;5058362;28;19909;-75
2021/06/29 09:05:36;;;;;;;;;;;21.20;87.00;;;;;;5073911;28;19953;-76
2021/06/29 09:08:04;;;;;;;;;;;21.00;90.40;;;;;;5068456;28;19920;-75
2021/06/29 09:10:30;;;;;;;;;;;21.00;90.40;;;;;;5038635;28;19914;-74
2021/06/29 09:12:57;;;;;;;;;;;21.20;91.20;;;;;;5074434;28;19912;-72
2021/06/29 09:15:27;;;;;;;;;;;21.40;90.00;;;;;;5074576;28;20285;-74
2021/06/29 09:17:53;;;;;;;;;;;21.50;90.00;;;;;;5073155;28;19913;-74
2021/06/29 09:20:29;;;;;;;;;;;21.50;87.80;;;;;;5074312;28;19908;-73
2021/06/29 09:22:56;;;;;;;;;;;21.60;88.20;;;;;;5073783;28;19912;-74
2021/06/29 09:25:26;;;;;;;;;;;21.60;85.90;;;;;;5055891;28;19908;-74
2021/06/29 09:27:52;;;;;;;;;;;21.50;83.80;;;;;;5073898;28;19916;-74
2021/06/29 09:30:27;;;;;;;;;;;21.80;84.90;;;;;;5074085;28;19918;-75
2021/06/29 09:32:53;;;;;;;;;;;22.10;82.60;;;;;;5074032;28;19908;-74
2021/06/29 09:35:19;;;;;;;;;;;22.40;83.10;;;;;;5072153;28;19913;-75
2021/06/29 09:37:45;;;;;;;;;;;22.90;84.80;;;;;;5062566;28;19920;-73
2021/06/29 09:40:12;;;;;;;8.40;4.95;;;23.50;85.00;;;;;;5070395;28;20019;-76
2021/06/29 09:42:39;;;;;;;13.68;5.47;;;24.00;82.00;;;;;;5064200;28;20190;-76
2021/06/29 09:45:27;;;;;;;11.98;5.30;;;23.70;81.50;;;;;;5071701;28;20178;-75
2021/06/29 09:47:53;;;;;;;8.80;4.82;;;23.50;81.20;;;;;;5058231;28;20213;-74
2021/06/29 09:50:39;;;;;;;10.75;5.70;;;23.10;82.00;;;;;;5073177;28;20182;-76
2021/06/29 09:53:26;;;;;;;9.68;5.30;;;22.60;83.30;;;;;;5072097;28;20170;-74
2021/06/29 09:55:54;;;;;;;11.23;5.03;;;22.30;83.90;;;;;;5070862;28;20648;-74
2021/06/29 09:58:20;;;;;;;13.43;4.95;;;22.40;83.50;;;;;;5054086;28;20177;-74
2021/06/29 10:00:49;;;;;;;13.93;5.00;;;22.90;81.20;;;;;;5072746;28;20529;-76
2021/06/29 10:03:26;;;;;;;7.75;4.75;;;23.20;80.60;;;;;;5070069;28;20170;-75
2021/06/29 10:05:54;;;;;;;8.10;4.80;;;23.50;79.90;;;;;;5071648;28;20170;-75
2021/06/29 10:08:26;;;;;;;10.27;5.30;;;23.20;79.10;;;;;;5072027;28;20206;-65
2021/06/29 10:11:11;;;;;;;9.60;4.68;;;22.90;81.20;;;;;;5070871;28;20205;-74
2021/06/29 10:13:42;;;;;;;10.10;4.80;;;22.80;78.90;;;;;;5072416;28;20197;-73
2021/06/29 10:16:09;;;;;;;16.55;4.57;;;23.10;79.80;;;;;;5072294;28;20641;-76
2021/06/29 10:21:22;;;;;;;10.40;5.00;;;23.20;78.80;;;;;;5079354;28;20189;-73
2021/06/29 10:23:53;;;;;;;10.80;4.93;;;22.90;81.10;;;;;;5072406;28;20642;-75
2021/06/29 10:26:19;;;;;;;10.27;4.93;;;23.20;80.90;;;;;;5072176;28;20185;-75
2021/06/29 10:28:46;;;;;;;9.10;4.70;;;23.30;79.80;;;;;;5072565;28;20219;-72
2021/06/29 10:31:32;;;;;;;18.58;5.25;;;23.80;81.70;;;;;;5072481;28;20174;-73
2021/06/29 10:33:59;;;;;;;12.55;5.22;;;24.60;80.60;;;;;;5072387;28;20170;-76
2021/06/29 10:36:26;;;;;;;10.48;5.80;;;24.70;77.30;;;;;;5071887;28;20177;-75
2021/06/29 10:38:53;;;;;;;8.50;5.20;;;24.40;78.00;;;;;;5071423;28;20694;-76
2021/06/29 10:41:21;;;;;;;14.77;5.35;;;24.40;76.80;;;;;;5072477;28;20642;-73
2021/06/29 10:43:47;;;;;;;13.68;4.95;;;24.10;76.30;;;;;;5070770;28;20661;-76
2021/06/29 10:46:29;;;;;;;14.30;5.40;;;23.90;76.40;;;;;;5067091;28;20178;-77
2021/06/29 10:48:56;;;;;;;11.80;4.78;;;24.20;76.80;;;;;;5072293;28;20209;-76
2021/06/29 10:51:38;;;;;;;11.60;4.90;;;24.20;74.70;;;;;;5071504;28;20181;-74
2021/06/29 10:54:04;;;;;;;15.65;5.10;;;23.80;73.60;;;;;;5071452;28;20209;-74
2021/06/29 10:56:53;;;;;;;12.10;4.15;;;24.10;71.60;;;;;;5072491;28;20174;-76
2021/06/29 10:59:19;;;;;;;10.43;4.70;;;24.10;68.10;;;;;;5054489;28;20193;-75
2021/06/29 11:01:54;;;;;;;11.45;4.72;;;24.20;70.00;;;;;;5054153;28;20542;-75
2021/06/29 11:04:47;;;;;;;8.45;4.28;;;23.90;69.60;;;;;;5072182;28;20188;-75
2021/06/29 11:07:31;;;;;;;10.30;4.72;;;23.60;67.50;;;;;;5068317;28;20185;-73
2021/06/29 11:10:27;;;;;;;11.63;5.35;;;23.50;71.60;;;;;;5070931;28;20201;-76
2021/06/29 11:12:56;;;;;;;14.57;6.00;;;23.00;72.70;;;;;;5072449;28;20525;-75
2021/06/29 11:15:42;;;;;;;17.05;5.57;;;23.30;75.80;;;;;;5071875;28;20198;-75
2021/06/29 11:18:09;;;;;;;18.02;6.15;;;23.00;74.50;;;;;;5071902;28;20185;-76
2021/06/29 11:20:39;;;;;;;12.73;5.35;;;22.80;75.00;;;;;;5071945;28;20162;-71
2021/06/29 11:23:26;;;;;;;14.73;5.53;;;23.30;75.90;;;;;;5071632;28;20177;-64
2021/06/29 11:26:18;;;;;;;15.20;6.18;;;23.60;74.30;;;;;;5052973;28;20185;-58
2021/06/29 11:28:49;;;;;;;15.98;6.30;;;23.30;73.30;;;;;;5063931;28;20244;-58
2021/06/29 11:31:31;;;;;;;18.52;6.10;;;23.30;71.10;;;;;;5071614;28;20162;-59
2021/06/29 11:34:05;;;;;;;171.80;29.23;;;23.30;71.50;;;;;;5066085;28;20178;-63
2021/06/29 11:36:32;;;;;;;13.52;6.30;;;23.50;75.10;;;;;;5071288;28;20186;-58
2021/06/29 11:39:15;;;;;;;15.85;6.47;;;23.40;72.40;;;;;;5065466;28;20233;-59
2021/06/29 11:41:42;;;;;;;16.88;7.47;;;22.70;73.00;;;;;;5074149;28;20161;-59
2021/06/29 11:44:09;;;;;;;19.83;6.20;;;22.50;73.90;;;;;;5075388;28;20174;-59
2021/06/29 11:46:55;;;;;;;23.42;6.50;;;22.10;72.10;;;;;;5075418;28;20170;-59
2021/06/29 11:49:30;;;;;;;14.95;6.43;;;21.90;74.70;;;;;;5075669;28;20205;-59
2021/06/29 11:51:58;;;;;;;21.20;8.43;;;22.00;72.70;;;;;;5075844;28;20184;-58
2021/06/29 11:54:43;;;;;;;17.52;8.50;;;21.80;75.70;;;;;;5075786;28;20166;-58
2021/06/29 11:57:27;;;;;;;16.02;7.90;;;22.00;78.20;;;;;;5075103;28;20182;-60
2021/06/29 12:00:03;;;;;;;17.05;9.55;;;21.70;77.00;;;;;;5071713;28;20186;-59
2021/06/29 12:02:30;;;;;;;21.35;8.18;;;21.60;80.50;;;;;;5072985;28;20173;-59
2021/06/29 12:05:17;;;;;;;21.17;9.27;;;21.50;76.90;;;;;;5064532;28;20622;-59
2021/06/29 12:07:47;;;;;;;18.65;7.50;;;21.20;82.00;;;;;;5067177;28;20174;-59
2021/06/29 12:10:21;;;;;;;22.30;9.15;;;20.90;76.60;;;;;;5071996;28;20190;-58
2021/06/29 12:12:51;;;;;;;20.65;9.40;;;20.90;80.30;;;;;;5073009;28;20154;-59
2021/06/29 12:15:22;;;;;;;17.20;10.48;;;21.00;81.70;;;;;;5069001;28;20194;-59
2021/06/29 12:18:05;;;;;;;17.80;9.48;;;21.00;84.20;;;;;;5072746;28;20182;-59
2021/06/29 12:20:40;;;;;;;20.67;10.00;;;21.10;83.50;;;;;;5071114;28;20174;-58
2021/06/29 12:23:09;;;;;;;25.15;10.23;;;20.70;83.40;;;;;;5070224;28;20161;-59
2021/06/29 12:25:43;;;;;;;20.23;10.80;;;20.60;85.40;;;;;;5070428;28;20685;-59
2021/06/29 12:28:17;;;;;;;21.50;11.02;;;20.60;86.80;;;;;;5044802;28;20233;-58
2021/06/29 12:30:47;;;;;;;23.23;11.13;;;20.80;87.10;;;;;;5050307;28;20187;-59
2021/06/29 12:33:17;;;;;;;28.85;10.10;;;21.20;87.40;;;;;;5063835;28;20165;-59
2021/06/29 12:35:50;;;;;;;21.75;9.40;;;21.50;83.30;;;;;;5072761;28;20174;-58
2021/06/29 12:38:21;;;;;;;16.30;6.85;;;21.50;83.20;;;;;;5073785;28;20217;-56
2021/06/29 12:40:56;;;;;;;17.05;6.70;;;21.40;76.20;;;;;;5070336;28;20167;-59
2021/06/29 12:43:29;;;;;;;24.98;8.25;;;21.30;72.70;;;;;;5073056;28;20158;-58
2021/06/29 12:45:55;;;;;;;17.38;6.20;;;21.50;75.00;;;;;;5057068;28;20615;-58
2021/06/29 12:48:22;;;;;;;12.88;6.68;;;21.60;71.30;;;;;;5055885;28;20214;-57
2021/06/29 12:50:55;;;;;;;15.23;6.45;;;21.90;70.90;;;;;;5074248;28;20181;-59
2021/06/29 12:53:22;;;;;;;14.40;7.25;;;22.00;70.60;;;;;;5072963;28;20178;-58
2021/06/29 12:55:48;;;;;;;14.85;7.22;;;22.20;73.40;;;;;;5055780;28;20197;-58
2021/06/29 12:58:14;;;;;;;16.27;7.40;;;21.80;72.10;;;;;;5073368;28;20170;-58
2021/06/29 13:00:46;;;;;;;11.48;7.03;;;21.50;75.00;;;;;;5056363;28;20646;-59
2021/06/29 13:03:13;;;;;;;18.02;8.40;;;21.50;71.30;;;;;;5040318;28;20646;-58